Portada
METAR-TAF:

METAR-TAF

Aeroports :

Tachikawa, Japó

latitud: 35-42N, longitud: 139-24E, altitud: 95 m

Observació

L'informe es va fer fa 14 hores i 36 minuts, a les 05:39 UTC
Vent 12 kt del Nord/Nord-Est, variant entre Nord i Est/Nord-Est
Temperatura 18°C
Humitat 28%
Pressió 1001 hPa
Visibilitat 10 km o més
Escasses núvols a una alçada de 3000 ft
Cel ennuvolat a una alçada de 7000 ft
Cel ennuvolat a una alçada de 23000 ft

METAR: RJTC 220539Z 02012KT 350V060 9999 FEW030 BKN070 BKN230 18/M01 Q1001 RMK 2CU030 5AC070 6CI230 A2958

Hora: 05:15 (20:15 UTC)


TAF: manca

Observacions i pronòstics meteorològics de més de 4000 aeroports (METAR i TAF).

Les estacions disponibles són els punts grocs i vermells al mapa.

Posi el ratolí al punt desitjat per veure el nom de l'estació.

Feu clic per veure les observacions i els pronòstics meteorològics.

Per canviar el mapa: feu clic els botons verds amb una creu de color negre per apropar; al botó verd amb un guió per allunyar la imatge; o en les fletxes verdes per a mapes adjacents.


METAR-TAF: